Time;durP1;ratioP1;P1;durP2;ratioP2;P2;SDS_P1;SDS_P2;PMS_P1;PMS_P2;Temp;Humidity;BMP_temperature;BMP_pressure;BME280_temperature;BME280_humidity;BME280_pressure;Samples;Min_cycle;Max_cycle;Signal;HPM_P1;HPM_P2
2022/04/01 07:34:34;;;;;;;6.10;4.65;;;1.80;87.10;;;;;;603912;22;20481;-94
2022/04/01 07:37:00;;;;;;;7.78;5.80;;;1.80;87.00;;;;;;4988740;28;20235;-92
2022/04/01 07:39:27;;;;;;;7.23;6.30;;;1.80;86.80;;;;;;4992417;28;20215;-92
2022/04/01 07:41:52;;;;;;;10.23;6.55;;;1.80;86.80;;;;;;4974535;28;20442;-92
2022/04/01 07:44:18;;;;;;;10.37;6.20;;;1.90;86.90;;;;;;4963171;28;20208;-93
2022/04/01 07:46:44;;;;;;;6.70;5.10;;;1.90;86.40;;;;;;4961178;28;20420;-92
2022/04/01 07:49:10;;;;;;;9.50;5.73;;;1.80;85.90;;;;;;4978823;28;20419;-93
2022/04/01 07:51:38;;;;;;;7.80;4.43;;;1.80;86.20;;;;;;4960475;28;20419;-93
2022/04/01 07:54:04;;;;;;;8.07;5.70;;;1.80;85.80;;;;;;4960460;28;20444;-92
2022/04/01 07:56:32;;;;;;;8.47;6.00;;;1.90;85.80;;;;;;4961869;28;20184;-92
2022/04/01 13:23:06;;;;;;;4.43;3.13;;;4.80;63.00;;;;;;5058528;28;20212;-89
2022/04/01 13:25:33;;;;;;;4.28;2.92;;;4.80;63.20;;;;;;5042614;28;20209;-89
2022/04/01 13:28:01;;;;;;;6.28;2.80;;;4.90;63.80;;;;;;5040804;28;20193;-90
2022/04/01 13:30:27;;;;;;;3.05;2.83;;;5.10;63.60;;;;;;5037529;28;20181;-90
2022/04/01 13:32:53;;;;;;;6.20;3.17;;;5.10;63.50;;;;;;5026291;28;20281;-90
2022/04/01 13:35:19;;;;;;;3.60;3.05;;;4.90;63.60;;;;;;5021316;28;20202;-91
2022/04/01 13:37:45;;;;;;;3.95;3.20;;;4.90;63.80;;;;;;5021158;28;20178;-90
2022/04/01 13:40:12;;;;;;;4.00;3.10;;;5.00;63.20;;;;;;5021401;28;20220;-91
2022/04/01 13:42:38;;;;;;;4.60;3.47;;;5.00;63.30;;;;;;5020906;28;20199;-91
2022/04/01 13:45:04;;;;;;;6.90;4.25;;;4.90;63.70;;;;;;5020896;28;20643;-91
2022/04/01 13:47:31;;;;;;;6.13;2.67;;;5.00;63.20;;;;;;5018553;28;20182;-92
2022/04/01 13:49:57;;;;;;;5.57;4.13;;;5.00;63.20;;;;;;5021220;28;20189;-93
2022/04/01 13:52:24;;;;;;;4.63;3.85;;;5.00;63.50;;;;;;5021636;28;20428;-92
2022/04/01 13:54:49;;;;;;;4.00;3.60;;;4.90;64.30;;;;;;5020979;28;20202;-92
2022/04/01 13:57:15;;;;;;;3.80;3.40;;;5.00;64.50;;;;;;5022142;28;20242;-92
2022/04/01 13:59:46;;;;;;;4.80;3.63;;;5.10;64.00;;;;;;5029535;28;20514;-93
2022/04/01 14:02:38;;;;;;;4.80;3.90;;;5.00;63.80;;;;;;5031927;28;20208;-93
2022/04/01 14:05:04;;;;;;;8.52;4.45;;;5.20;63.40;;;;;;5027984;28;20294;-92
2022/04/01 14:07:52;;;;;;;5.00;3.30;;;5.00;63.40;;;;;;5005926;28;20554;-91
2022/04/01 14:10:18;;;;;;;4.88;4.25;;;4.90;63.80;;;;;;5024958;28;20174;-92
2022/04/01 14:12:45;;;;;;;5.47;4.53;;;4.90;65.10;;;;;;5011549;28;20189;-93
2022/04/01 14:15:14;;;;;;;6.22;4.70;;;4.90;64.70;;;;;;5036577;28;20516;-92
2022/04/01 14:17:41;;;;;;;3.53;3.15;;;4.70;64.70;;;;;;5056317;28;20197;-94
2022/04/01 14:20:08;;;;;;;4.95;3.90;;;4.70;64.70;;;;;;5037959;28;20209;-94
2022/04/01 14:22:40;;;;;;;5.15;3.60;;;4.40;64.10;;;;;;5033186;28;20193;-94
2022/04/01 14:25:35;;;;;;;8.63;5.80;;;4.50;64.30;;;;;;5033199;28;20198;-93
2022/04/01 14:28:05;;;;;;;4.88;3.65;;;4.70;64.30;;;;;;5047958;28;20229;-94
2022/04/01 14:30:33;;;;;;;5.75;4.55;;;4.60;63.80;;;;;;5045080;28;20174;-94
2022/04/01 14:32:59;;;;;;;4.50;4.10;;;4.60;63.80;;;;;;5032000;28;20157;-93
2022/04/01 14:35:31;;;;;;;9.07;5.43;;;4.70;63.90;;;;;;5037843;28;20201;-94
2022/04/01 14:38:01;;;;;;;6.75;4.90;;;4.70;64.20;;;;;;5030755;28;20174;-91
2022/04/01 14:40:28;;;;;;;6.32;4.95;;;4.80;64.00;;;;;;5026108;28;20174;-92
2022/04/01 14:42:54;;;;;;;6.10;4.47;;;4.60;64.40;;;;;;5026704;28;20180;-93
2022/04/01 14:45:21;;;;;;;4.83;4.43;;;4.60;64.80;;;;;;5031884;28;20229;-93
2022/04/01 14:47:47;;;;;;;10.32;4.45;;;4.60;65.10;;;;;;5033417;28;20416;-93
2022/04/01 14:50:22;;;;;;;7.72;5.38;;;4.60;64.60;;;;;;5025367;28;20227;-94
2022/04/01 14:53:00;;;;;;;7.00;5.60;;;4.70;64.10;;;;;;5043456;28;20177;-93
2022/04/01 14:55:26;;;;;;;6.70;5.40;;;4.70;64.20;;;;;;5021786;28;20248;-93
2022/04/01 14:57:55;;;;;;;7.70;5.23;;;4.90;64.10;;;;;;5021382;28;20177;-93
2022/04/01 15:00:21;;;;;;;10.45;6.28;;;4.80;63.30;;;;;;5022617;28;20506;-92
2022/04/01 15:02:47;;;;;;;9.05;6.25;;;5.00;63.50;;;;;;5023763;28;20180;-93
2022/04/01 15:05:16;;;;;;;6.78;4.72;;;5.00;63.40;;;;;;5024167;28;20193;-93
2022/04/01 15:49:46;;;;;;;7.13;4.50;;;5.10;63.20;;;;;;5043375;28;20689;-94
2022/04/01 15:52:12;;;;;;;4.60;3.72;;;5.10;63.00;;;;;;5029161;28;20169;-93
2022/04/01 15:54:41;;;;;;;4.22;3.10;;;5.00;62.40;;;;;;5041046;28;20197;-93
2022/04/01 15:57:18;;;;;;;6.20;4.00;;;4.80;62.20;;;;;;5063859;28;20161;-93
2022/04/01 15:59:45;;;;;;;4.40;3.35;;;5.00;62.20;;;;;;5045474;28;20231;-94
2022/04/01 16:02:26;;;;;;;4.53;3.50;;;5.00;62.70;;;;;;5041566;28;20184;-93
2022/04/01 16:05:09;;;;;;;3.63;2.80;;;5.00;61.80;;;;;;5041757;28;20698;-92
2022/04/01 16:07:37;;;;;;;7.70;3.53;;;4.90;61.70;;;;;;5043106;28;20379;-94
2022/04/01 16:10:13;;;;;;;5.15;3.47;;;5.10;62.20;;;;;;5072207;28;20174;-92
2022/04/01 16:12:44;;;;;;;3.85;3.50;;;5.00;62.70;;;;;;5060800;28;20193;-92
2022/04/01 16:15:11;;;;;;;5.85;3.42;;;4.80;64.10;;;;;;5043356;28;20212;-93
2022/04/01 16:17:37;;;;;;;8.57;3.28;;;4.70;65.10;;;;;;5043421;28;20248;-92
2022/04/01 16:20:08;;;;;;;4.10;3.70;;;4.70;66.00;;;;;;5055474;28;20208;-94
2022/04/01 16:23:28;;;;;;;6.10;4.18;;;4.90;66.10;;;;;;5060105;28;20192;-93
2022/04/01 16:25:54;;;;;;;3.65;3.05;;;5.00;66.00;;;;;;5060914;28;20253;-93
2022/04/01 18:20:34;;;;;;;3.72;2.83;;;4.50;72.90;;;;;;5039479;28;20228;-90
2022/04/01 18:23:09;;;;;;;5.95;3.10;;;4.30;74.70;;;;;;4962126;28;20231;-90
2022/04/01 18:26:01;;;;;;;5.47;4.05;;;4.20;76.60;;;;;;4979736;28;20199;-91
2022/04/01 18:28:42;;;;;;;5.32;4.40;;;4.10;78.00;;;;;;4981315;28;20180;-91
2022/04/01 18:31:37;;;;;;;6.85;4.15;;;4.10;78.80;;;;;;4967795;28;20179;-91
2022/04/01 18:34:09;;;;;;;5.43;3.38;;;4.10;79.20;;;;;;4981604;28;20238;-91
2022/04/01 18:44:04;;;;;;;7.20;3.63;;;4.10;80.40;;;;;;4939053;29;20253;-91
2022/04/01 19:00:45;;;;;;;6.13;3.47;;;4.00;79.50;;;;;;4959893;29;20341;-92
2022/04/01 19:03:27;;;;;;;4.00;3.60;;;3.90;79.00;;;;;;4850181;29;20178;-91
2022/04/01 19:06:09;;;;;;;4.05;3.20;;;3.90;79.00;;;;;;4936293;29;20189;-92
2022/04/01 19:09:03;;;;;;;6.00;2.65;;;3.90;78.70;;;;;;4957679;28;20252;-92
2022/04/01 20:37:37;;;;;;;5.97;2.58;;;3.90;68.00;;;;;;5018716;28;20225;-90
2022/04/01 20:40:03;;;;;;;4.85;2.28;;;3.70;66.00;;;;;;5001987;28;20646;-89
2022/04/01 20:42:30;;;;;;;3.35;2.38;;;3.60;65.60;;;;;;5002220;28;20203;-90
2022/04/01 20:44:58;;;;;;;3.40;2.83;;;3.50;65.90;;;;;;4983772;28;20226;-93
2022/04/01 20:47:25;;;;;;;13.43;2.97;;;3.50;66.30;;;;;;5009430;28;20210;-92
2022/04/01 20:49:50;;;;;;;3.88;2.78;;;3.60;66.80;;;;;;5010559;28;20189;-92
2022/04/01 20:52:16;;;;;;;3.83;2.57;;;3.60;66.20;;;;;;5019334;28;20183;-89
2022/04/01 20:54:42;;;;;;;2.40;2.13;;;3.50;65.60;;;;;;5005793;28;20443;-91
2022/04/01 20:57:08;;;;;;;10.70;3.17;;;3.60;65.50;;;;;;5006847;28;20433;-93
2022/04/01 20:59:33;;;;;;;4.70;2.57;;;3.60;65.40;;;;;;5009060;28;20194;-92
2022/04/01 21:01:59;;;;;;;6.10;2.57;;;3.60;64.90;;;;;;5007664;28;20422;-90
2022/04/01 21:04:25;;;;;;;2.80;2.60;;;3.50;64.30;;;;;;5002400;28;20195;-91
2022/04/01 21:06:51;;;;;;;3.70;1.80;;;3.60;64.10;;;;;;5021584;28;20504;-90
2022/04/01 21:09:17;;;;;;;7.50;2.50;;;3.60;63.70;;;;;;5004296;28;20425;-90
2022/04/01 21:11:43;;;;;;;7.10;2.73;;;3.50;63.50;;;;;;5021751;28;20222;-90
2022/04/01 21:14:09;;;;;;;8.57;2.80;;;3.60;63.50;;;;;;5021239;28;20285;-92
2022/04/01 21:16:35;;;;;;;4.90;2.30;;;3.50;63.30;;;;;;5009928;28;20429;-93
2022/04/01 21:19:00;;;;;;;4.20;2.10;;;3.50;63.10;;;;;;5016320;28;20198;-94
2022/04/01 21:21:29;;;;;;;6.20;2.27;;;3.60;63.20;;;;;;5019025;28;20449;-91
2022/04/01 21:23:55;;;;;;;2.75;2.47;;;3.60;63.00;;;;;;5006353;28;20198;-91
2022/04/01 21:29:06;;;;;;;5.82;2.20;;;3.40;63.10;;;;;;5008596;28;20584;-91
2022/04/01 21:31:32;;;;;;;8.10;2.63;;;3.50;63.10;;;;;;5006091;28;20179;-91
2022/04/01 21:33:58;;;;;;;9.83;3.23;;;3.40;63.00;;;;;;5002761;28;20285;-92
2022/04/01 21:36:23;;;;;;;11.77;2.23;;;3.40;63.00;;;;;;5004423;28;20820;-91
2022/04/01 21:38:49;;;;;;;2.73;2.53;;;3.40;63.20;;;;;;5004415;28;20210;-92
2022/04/01 21:41:15;;;;;;;7.80;2.53;;;3.40;63.50;;;;;;5011971;28;20202;-92
2022/04/01 21:43:41;;;;;;;4.83;2.57;;;3.40;63.20;;;;;;5011840;28;20445;-93
2022/04/01 21:46:08;;;;;;;4.03;2.35;;;3.30;63.20;;;;;;5010831;28;20937;-92
2022/04/01 21:48:35;;;;;;;3.92;2.40;;;3.50;63.10;;;;;;5008030;28;20179;-92
2022/04/01 21:51:01;;;;;;;6.75;3.17;;;3.40;62.60;;;;;;5007390;28;20209;-92
2022/04/01 21:53:27;;;;;;;3.78;2.17;;;3.40;62.70;;;;;;5003288;28;20187;-92
2022/04/01 21:55:54;;;;;;;7.30;2.85;;;3.60;62.90;;;;;;5023541;28;20194;-91
2022/04/01 21:58:20;;;;;;;3.45;1.90;;;3.50;62.30;;;;;;5002840;28;20557;-92
2022/04/01 22:00:45;;;;;;;3.57;2.30;;;3.60;62.20;;;;;;5003712;28;20171;-93
2022/04/01 22:03:13;;;;;;;4.17;2.63;;;3.60;62.00;;;;;;4987449;28;20456;-94
2022/04/01 22:05:39;;;;;;;2.95;2.17;;;3.60;61.40;;;;;;4991661;28;20218;-94
2022/04/01 22:08:12;;;;;;;4.07;2.35;;;3.70;61.60;;;;;;4991448;28;20179;-95
2022/04/01 22:10:39;;;;;;;3.58;2.25;;;3.60;61.60;;;;;;5007225;28;20183;-95
2022/04/01 22:13:06;;;;;;;4.55;2.22;;;3.70;61.80;;;;;;5007750;28;20183;-95
2022/04/01 22:15:32;;;;;;;9.52;2.47;;;3.60;61.30;;;;;;5007795;28;20202;-94
2022/04/01 22:17:58;;;;;;;8.63;2.17;;;3.80;61.40;;;;;;5014161;28;20195;-94
2022/04/01 22:20:25;;;;;;;9.35;2.85;;;3.70;61.00;;;;;;5019948;28;20465;-95
2022/04/01 22:22:52;;;;;;;4.18;2.40;;;3.70;61.30;;;;;;5019650;28;20182;-95
2022/04/01 22:25:19;;;;;;;7.60;2.78;;;3.70;61.20;;;;;;5022000;28;20267;-94
2022/04/01 22:27:44;;;;;;;5.68;2.50;;;3.70;61.30;;;;;;5000526;28;20176;-92
2022/04/01 22:30:10;;;;;;;3.57;1.87;;;3.80;60.80;;;;;;5000839;28;20211;-92
2022/04/01 22:32:38;;;;;;;2.72;2.30;;;4.00;60.90;;;;;;5004367;28;20174;-92
2022/04/01 22:35:06;;;;;;;6.60;2.40;;;3.90;60.70;;;;;;5004511;28;20288;-93
2022/04/01 22:37:32;;;;;;;3.38;2.08;;;3.90;60.90;;;;;;5002261;28;20186;-89
2022/04/01 22:39:59;;;;;;;2.38;2.17;;;3.70;61.10;;;;;;5008622;28;20206;-93
2022/04/01 22:42:27;;;;;;;3.65;2.40;;;3.60;61.10;;;;;;5021458;28;20209;-92
2022/04/01 22:44:54;;;;;;;3.50;2.78;;;3.70;61.40;;;;;;5022144;28;20207;-90
2022/04/01 22:47:20;;;;;;;11.43;2.15;;;3.70;61.30;;;;;;5022374;28;20209;-91
2022/04/01 22:49:46;;;;;;;2.87;1.87;;;3.60;61.40;;;;;;5022549;28;20182;-91
2022/04/01 22:52:20;;;;;;;2.83;1.80;;;3.80;61.30;;;;;;5006438;28;20462;-90
2022/04/01 22:54:46;;;;;;;4.97;2.88;;;3.70;61.30;;;;;;5022055;28;20428;-90
2022/04/01 22:57:13;;;;;;;7.95;2.40;;;3.60;61.30;;;;;;5022307;28;20206;-91
2022/04/01 22:59:39;;;;;;;3.42;2.17;;;3.60;62.30;;;;;;5016137;28;20198;-90
2022/04/01 23:02:05;;;;;;;4.13;2.10;;;3.60;61.70;;;;;;5019177;28;20644;-90
2022/04/01 23:04:31;;;;;;;6.60;2.70;;;3.60;61.90;;;;;;5003878;28;20433;-91
2022/04/01 23:06:57;;;;;;;6.45;2.40;;;3.70;61.90;;;;;;5004200;28;20189;-91
2022/04/01 23:09:23;;;;;;;10.98;2.17;;;3.80;61.90;;;;;;5024590;28;20175;-91
2022/04/01 23:11:49;;;;;;;4.97;3.03;;;3.70;61.80;;;;;;5011284;28;20197;-93
2022/04/01 23:14:15;;;;;;;5.28;2.22;;;3.70;62.20;;;;;;5008741;28;20293;-94
2022/04/01 23:16:41;;;;;;;3.10;2.30;;;3.70;62.20;;;;;;5004752;28;20192;-93
2022/04/01 23:19:08;;;;;;;6.55;2.30;;;3.70;62.50;;;;;;5001213;28;20229;-94
2022/04/01 23:21:37;;;;;;;3.95;2.67;;;3.60;62.60;;;;;;5001263;28;20202;-94
2022/04/01 23:24:05;;;;;;;4.20;2.63;;;3.50;63.10;;;;;;5000954;28;20232;-93
2022/04/01 23:43:38;;;;;;;3.65;2.78;;;3.20;65.20;;;;;;5025218;28;20202;-93
2022/04/01 23:46:23;;;;;;;3.80;2.22;;;3.30;65.70;;;;;;5022394;28;20217;-94
2022/04/01 23:48:49;;;;;;;6.50;2.90;;;3.20;66.10;;;;;;5018565;28;20654;-94
2022/04/01 23:51:15;;;;;;;5.93;3.10;;;3.50;66.20;;;;;;5001231;28;20188;-94
2022/04/01 23:53:42;;;;;;;5.47;3.33;;;3.40;66.20;;;;;;5004168;28;20452;-93
2022/04/01 23:56:08;;;;;;;4.53;3.28;;;3.50;66.50;;;;;;5007111;28;20432;-93
2022/04/01 23:58:33;;;;;;;13.07;3.67;;;3.30;67.20;;;;;;5015075;28;20258;-92
